createdAt,value
2023-02-26T00:01:43.315Z,98539.75
2023-02-26T00:04:10.892Z,98541.53
2023-02-26T00:06:53.227Z,98557.94
2023-02-26T00:09:22.769Z,98566.69
2023-02-26T00:11:50.672Z,98567.72
2023-02-26T00:14:18.022Z,98575.34
2023-02-26T00:16:51.592Z,98577.03
2023-02-26T00:19:20.460Z,98586.59
2023-02-26T00:21:48.153Z,98581.38
2023-02-26T00:24:17.404Z,98590.88
2023-02-26T00:26:44.929Z,98589.16
2023-02-26T00:29:12.498Z,98590.81
2023-02-26T00:31:40.963Z,98604.59
2023-02-26T00:34:13.290Z,98597.69
2023-02-26T00:36:46.834Z,98603.78
2023-02-26T00:39:42.860Z,98611.84
2023-02-26T00:42:10.173Z,98604.00
2023-02-26T00:44:37.684Z,98606.56
2023-02-26T00:47:30.776Z,98604.81
2023-02-26T00:50:14.299Z,98610.97
2023-02-26T00:53:00.395Z,98605.84
2023-02-26T00:55:29.442Z,98611.94
2023-02-26T00:57:58.824Z,98614.44
2023-02-26T01:00:27.591Z,98614.50
2023-02-26T01:02:56.022Z,98615.31
2023-02-26T01:05:26.259Z,98626.47
2023-02-26T01:07:59.853Z,98624.91
2023-02-26T01:10:27.968Z,98633.59
2023-02-26T01:12:57.613Z,98641.44
2023-02-26T01:15:25.700Z,98626.75
2023-02-26T01:18:02.718Z,98635.47
2023-02-26T01:20:38.853Z,98639.69
2023-02-26T01:23:16.400Z,98637.25
2023-02-26T01:25:50.554Z,98649.47
2023-02-26T01:28:18.384Z,98644.19
2023-02-26T01:30:46.465Z,98653.78
2023-02-26T01:33:22.977Z,98656.50
2023-02-26T01:35:54.700Z,98654.91
2023-02-26T01:39:08.805Z,98657.34
2023-02-26T01:41:51.312Z,98661.63
2023-02-26T01:44:48.910Z,98662.47
2023-02-26T01:47:41.765Z,98665.13
2023-02-26T01:50:14.467Z,98667.72
2023-02-26T01:52:51.122Z,98666.81
2023-02-26T01:55:27.593Z,98685.00
2023-02-26T01:57:59.074Z,98671.22
2023-02-26T02:00:33.203Z,98684.13
2023-02-26T02:03:02.442Z,98682.38
2023-02-26T02:05:42.161Z,98693.69
2023-02-26T02:08:13.485Z,98688.44
2023-02-26T02:10:46.986Z,98693.69
2023-02-26T02:13:16.811Z,98698.88
2023-02-26T02:16:06.305Z,98704.13
2023-02-26T02:18:52.549Z,98704.97
2023-02-26T02:21:42.257Z,98708.38
2023-02-26T02:24:14.840Z,98718.78
2023-02-26T02:27:00.325Z,98719.63
2023-02-26T02:29:28.573Z,98727.38
2023-02-26T02:31:59.552Z,98727.44
2023-02-26T02:34:32.790Z,98733.47
2023-02-26T02:37:28.330Z,98733.47
2023-02-26T02:40:08.097Z,98729.13
2023-02-26T02:43:12.777Z,98740.41
2023-02-26T02:46:05.221Z,98743.00
2023-02-26T02:48:32.302Z,98748.25
2023-02-26T02:51:04.351Z,98747.41
2023-02-26T02:53:44.041Z,98750.00
2023-02-26T02:56:15.243Z,98750.91
2023-02-26T02:58:56.460Z,98746.53
2023-02-26T03:01:28.033Z,98761.25
2023-02-26T03:04:07.736Z,98764.84
2023-02-26T03:06:35.731Z,98771.81
2023-02-26T03:09:05.391Z,98778.78
2023-02-26T03:11:39.741Z,98777.16
2023-02-26T03:14:11.031Z,98788.47
2023-02-26T03:17:12.568Z,98787.66
2023-02-26T03:20:13.909Z,98789.50
2023-02-26T03:23:00.228Z,98794.69
2023-02-26T03:25:35.998Z,98805.47
2023-02-26T03:28:13.715Z,98807.09
2023-02-26T03:30:51.891Z,98808.72
2023-02-26T03:33:53.478Z,98814.75
2023-02-26T03:36:28.505Z,98816.41
2023-02-26T03:39:18.686Z,98819.84
2023-02-26T03:42:02.656Z,98825.97
2023-02-26T03:44:38.531Z,98821.72
2023-02-26T03:47:13.087Z,98829.59
2023-02-26T03:49:50.952Z,98827.84
2023-02-26T03:52:33.261Z,98841.72
2023-02-26T03:55:10.904Z,98840.97
2023-02-26T03:57:38.582Z,98838.38
2023-02-26T04:00:10.953Z,98846.91
2023-02-26T04:02:45.899Z,98843.50
2023-02-26T04:05:19.924Z,98846.00
2023-02-26T04:07:48.710Z,98847.66
2023-02-26T04:10:19.875Z,98857.16
2023-02-26T04:12:46.910Z,98853.66
2023-02-26T04:15:14.910Z,98859.75
2023-02-26T04:17:43.386Z,98862.28
2023-02-26T04:20:12.305Z,98862.16
2023-02-26T04:22:39.687Z,98865.72
2023-02-26T04:25:07.514Z,98869.09
2023-02-26T04:27:34.806Z,98870.94
2023-02-26T04:30:02.209Z,98871.75
2023-02-26T04:32:31.712Z,98879.53
2023-02-26T04:35:00.196Z,98876.16
2023-02-26T04:37:27.664Z,98876.09
2023-02-26T04:39:55.142Z,98878.69
2023-02-26T04:42:22.808Z,98872.63
2023-02-26T04:45:02.617Z,98871.84
2023-02-26T04:47:29.927Z,98875.34
2023-02-26T04:49:57.186Z,98880.59
2023-02-26T04:52:24.337Z,98884.03
2023-02-26T04:54:51.610Z,98881.44
2023-02-26T04:57:19.098Z,98885.72
2023-02-26T04:59:47.865Z,98884.88
2023-02-26T05:02:15.706Z,98885.78
2023-02-26T05:04:43.990Z,98895.31
2023-02-26T05:07:11.934Z,98907.44
2023-02-26T05:09:39.496Z,98898.78
2023-02-26T05:12:06.880Z,98900.44
2023-02-26T05:14:34.366Z,98904.78
2023-02-26T05:17:01.756Z,98907.34
2023-02-26T05:19:29.344Z,98911.63
2023-02-26T05:21:57.741Z,98916.88
2023-02-26T05:24:25.387Z,98925.59
2023-02-26T05:26:52.712Z,98921.22
2023-02-26T05:29:20.220Z,98925.59
2023-02-26T05:31:47.759Z,98929.00
2023-02-26T05:34:15.638Z,98921.19
2023-02-26T05:36:43.090Z,98925.53
2023-02-26T05:39:10.822Z,98939.47
2023-02-26T05:41:38.044Z,98949.00
2023-02-26T05:44:05.629Z,98960.22
2023-02-26T05:46:32.991Z,98959.41
2023-02-26T05:49:00.447Z,98957.66
2023-02-26T05:51:28.933Z,98971.38
2023-02-26T05:53:56.356Z,98975.84
2023-02-26T05:56:24.265Z,98975.72
2023-02-26T05:58:58.080Z,98979.19
2023-02-26T06:01:26.352Z,98984.34
2023-02-26T06:03:53.600Z,98992.91
2023-02-26T06:06:23.065Z,99005.94
2023-02-26T06:08:51.773Z,99001.59
2023-02-26T06:11:19.353Z,98999.88
2023-02-26T06:13:46.773Z,99010.19
2023-02-26T06:16:14.281Z,99011.88
2023-02-26T06:18:47.920Z,99023.16
2023-02-26T06:21:15.389Z,99030.09
2023-02-26T06:23:43.984Z,99031.81
2023-02-26T06:26:13.200Z,99036.16
2023-02-26T06:28:42.486Z,99039.53
2023-02-26T06:31:11.096Z,99043.94
2023-02-26T06:33:40.320Z,99051.69
2023-02-26T06:36:08.772Z,99056.03
2023-02-26T06:38:36.297Z,99063.78
2023-02-26T06:41:09.375Z,99058.56
2023-02-26T06:43:36.929Z,99065.53
2023-02-26T06:46:04.737Z,99068.19
2023-02-26T06:48:33.433Z,99069.09
2023-02-26T06:51:00.910Z,99084.69
2023-02-26T06:53:28.363Z,99084.63
2023-02-26T06:55:55.855Z,99090.38
2023-02-26T06:58:24.691Z,99095.41
2023-02-26T07:00:51.876Z,99098.84
2023-02-26T07:03:19.798Z,99100.50
2023-02-26T07:05:47.566Z,99109.22
2023-02-26T07:08:15.266Z,99106.69
2023-02-26T07:10:44.092Z,99116.25
2023-02-26T07:13:13.583Z,99132.06
2023-02-26T07:15:41.382Z,99126.91
2023-02-26T07:18:15.760Z,99137.22
2023-02-26T07:20:43.868Z,99141.44
2023-02-26T07:23:12.725Z,99144.91
2023-02-26T07:25:42.430Z,99139.19
2023-02-26T07:28:10.796Z,99149.59
2023-02-26T07:30:38.356Z,99161.91
2023-02-26T07:33:05.773Z,99156.69
2023-02-26T07:35:33.200Z,99166.22
2023-02-26T07:38:00.628Z,99165.31
2023-02-26T07:40:29.169Z,99170.44
2023-02-26T07:42:56.652Z,99180.84
2023-02-26T07:45:25.141Z,99181.72
2023-02-26T07:47:54.521Z,99186.84
2023-02-26T07:50:25.184Z,99192.00
2023-02-26T07:52:54.705Z,99191.16
2023-02-26T07:55:22.769Z,99198.91
2023-02-26T07:57:50.435Z,99198.03
2023-02-26T08:00:18.590Z,99198.00
2023-02-26T08:02:46.255Z,99184.09
2023-02-26T08:05:13.433Z,99189.22
2023-02-26T08:07:44.123Z,99197.91
2023-02-26T08:10:13.714Z,99194.41
2023-02-26T08:12:41.062Z,99204.78
2023-02-26T08:15:14.679Z,99213.38
2023-02-26T08:17:43.185Z,99211.69
2023-02-26T08:20:12.208Z,99204.63
2023-02-26T08:22:39.833Z,99215.84
2023-02-26T08:25:09.445Z,99214.13
2023-02-26T08:27:36.895Z,99215.78
2023-02-26T08:30:05.809Z,99222.06
2023-02-26T08:32:33.694Z,99225.44
2023-02-26T08:35:01.180Z,99228.84
2023-02-26T08:37:29.701Z,99238.44
2023-02-26T08:39:57.396Z,99242.75
2023-02-26T08:42:24.716Z,99250.56
2023-02-26T08:44:52.336Z,99255.75
2023-02-26T08:47:28.547Z,99271.41
2023-02-26T08:49:56.718Z,99261.03
2023-02-26T08:52:24.226Z,99266.25
2023-02-26T08:54:51.610Z,99275.75
2023-02-26T08:57:19.030Z,99273.13
2023-02-26T08:59:46.535Z,99280.94
2023-02-26T09:02:15.353Z,99288.75
2023-02-26T09:04:42.971Z,99293.94
2023-02-26T09:07:10.007Z,99294.78
2023-02-26T09:09:37.325Z,99300.88
2023-02-26T09:12:04.957Z,99309.47
2023-02-26T09:14:32.240Z,99306.00
2023-02-26T09:16:59.411Z,99309.44
2023-02-26T09:19:26.612Z,99318.03
2023-02-26T09:21:54.062Z,99309.25
2023-02-26T09:24:21.070Z,99304.97
2023-02-26T09:26:48.507Z,99308.44
2023-02-26T09:29:15.871Z,99310.19
2023-02-26T09:31:43.179Z,99324.16
2023-02-26T09:34:11.566Z,99324.13
2023-02-26T09:36:40.810Z,99331.88
2023-02-26T09:39:09.308Z,99342.41
2023-02-26T09:41:49.088Z,99338.00
2023-02-26T09:44:45.378Z,99355.28
2023-02-26T09:47:17.095Z,99344.91
2023-02-26T09:50:10.816Z,99353.56
2023-02-26T09:52:44.946Z,99350.91
2023-02-26T09:55:37.036Z,99347.34
2023-02-26T09:58:10.061Z,99348.06
2023-02-26T10:00:44.920Z,99350.13
2023-02-26T10:03:51.136Z,99344.38
2023-02-26T10:06:35.908Z,99346.38
2023-02-26T10:09:26.293Z,99352.72
2023-02-26T10:12:02.507Z,99352.84
2023-02-26T10:14:48.237Z,99358.25
2023-02-26T10:17:18.256Z,99367.94
2023-02-26T10:19:51.932Z,99367.06
2023-02-26T10:22:28.015Z,99365.44
2023-02-26T10:25:03.746Z,99370.63
2023-02-26T10:27:57.242Z,99368.00
2023-02-26T10:30:38.285Z,99371.94
2023-02-26T10:33:22.763Z,99365.53
2023-02-26T10:35:57.293Z,99361.69
2023-02-26T10:38:33.701Z,99370.22
2023-02-26T10:41:16.254Z,99365.25
2023-02-26T10:43:52.505Z,99361.56
2023-02-26T10:46:30.634Z,99380.41
2023-02-26T10:49:18.656Z,99386.69
2023-02-26T10:51:47.377Z,99380.22
2023-02-26T10:54:30.169Z,99366.41
2023-02-26T10:56:57.688Z,99381.00
2023-02-26T10:59:26.054Z,99390.94
2023-02-26T11:01:54.665Z,99391.50
2023-02-26T11:04:24.374Z,99390.91
2023-02-26T11:07:00.694Z,99404.06
2023-02-26T11:09:46.377Z,99403.28
2023-02-26T11:12:19.339Z,99400.75
2023-02-26T11:14:49.281Z,99412.88
2023-02-26T11:17:31.659Z,99406.75
2023-02-26T11:20:25.471Z,99406.75
2023-02-26T11:22:58.411Z,99410.91
2023-02-26T11:25:31.116Z,99419.44
2023-02-26T11:28:05.749Z,99423.63
2023-02-26T11:30:38.052Z,99427.09
2023-02-26T11:33:17.114Z,99428.72
2023-02-26T11:35:45.878Z,99438.34
2023-02-26T11:38:25.971Z,99434.91
2023-02-26T11:40:57.287Z,99454.03
2023-02-26T11:43:29.130Z,99450.50
2023-02-26T11:46:00.694Z,99455.59
2023-02-26T11:48:51.843Z,99465.81
2023-02-26T11:51:26.843Z,99464.84
2023-02-26T11:53:57.374Z,99481.75
2023-02-26T11:56:34.483Z,99480.16
2023-02-26T11:59:28.071Z,99481.00
2023-02-26T12:01:56.032Z,99477.44
2023-02-26T12:04:27.487Z,99472.19
2023-02-26T12:06:57.114Z,99479.28
2023-02-26T12:09:27.130Z,99486.13
2023-02-26T12:12:20.806Z,99485.06
2023-02-26T12:15:08.952Z,99486.72
2023-02-26T12:17:47.942Z,99484.91
2023-02-26T12:20:27.737Z,99491.06
2023-02-26T12:23:17.972Z,99484.22
2023-02-26T12:26:09.780Z,99482.53
2023-02-26T12:29:02.632Z,99481.78
2023-02-26T12:31:51.318Z,99498.28
2023-02-26T12:34:45.088Z,99492.34
2023-02-26T12:37:22.386Z,99503.78
2023-02-26T12:40:32.770Z,99510.00
2023-02-26T12:43:11.140Z,99510.97
2023-02-26T12:45:59.430Z,99509.25
2023-02-26T12:48:36.398Z,99512.75
2023-02-26T12:51:16.373Z,99519.78
2023-02-26T12:54:18.720Z,99527.47
2023-02-26T12:56:57.944Z,99526.59
2023-02-26T12:59:36.167Z,99530.09
2023-02-26T13:02:14.394Z,99541.50
2023-02-26T13:05:17.121Z,99538.03
2023-02-26T13:08:03.363Z,99547.59
2023-02-26T13:11:30.989Z,99554.59
2023-02-26T13:14:10.670Z,99564.25
2023-02-26T13:16:59.883Z,99570.41
2023-02-26T13:19:38.239Z,99574.03
2023-02-26T13:22:41.132Z,99576.56
2023-02-26T13:25:33.700Z,99579.16
2023-02-26T13:28:06.185Z,99588.66
2023-02-26T13:30:45.019Z,99588.72
2023-02-26T13:33:21.810Z,99589.53
2023-02-26T13:35:53.546Z,99598.19
2023-02-26T13:38:27.515Z,99594.63
2023-02-26T13:41:30.573Z,99593.66
2023-02-26T13:44:23.942Z,99590.16
2023-02-26T13:47:11.650Z,99593.66
2023-02-26T13:49:59.660Z,99591.84
2023-02-26T13:52:34.155Z,99597.88
2023-02-26T13:55:04.933Z,99601.34
2023-02-26T13:57:52.457Z,99594.31
2023-02-26T14:00:48.528Z,99591.63
2023-02-26T14:03:18.898Z,99589.06
2023-02-26T14:05:49.707Z,99593.44
2023-02-26T14:08:44.591Z,99599.56
2023-02-26T14:11:18.618Z,99597.94
2023-02-26T14:14:17.192Z,99605.69
2023-02-26T14:16:50.112Z,99606.50
2023-02-26T14:19:27.468Z,99609.03
2023-02-26T14:22:09.948Z,99608.03
2023-02-26T14:24:46.570Z,99601.75
2023-02-26T14:27:15.462Z,99602.25
2023-02-26T14:29:58.852Z,99596.66
2023-02-26T14:32:36.544Z,99604.06
2023-02-26T14:35:14.477Z,99600.28
2023-02-26T14:37:44.309Z,99601.13
2023-02-26T14:40:22.502Z,99609.94
2023-02-26T14:43:07.757Z,99609.38
2023-02-26T14:45:43.624Z,99618.69
2023-02-26T14:48:17.791Z,99607.41
2023-02-26T14:50:51.225Z,99615.34
2023-02-26T14:53:40.904Z,99614.75
2023-02-26T14:56:20.564Z,99645.41
2023-02-26T14:59:14.986Z,99653.31
2023-02-26T15:02:14.426Z,99666.56
2023-02-26T15:05:12.021Z,99674.63
2023-02-26T15:07:55.341Z,99667.75
2023-02-26T15:10:32.567Z,99673.03
2023-02-26T15:13:09.825Z,99674.78
2023-02-26T15:15:58.918Z,99677.41
2023-02-26T15:19:00.317Z,99676.59
2023-02-26T15:22:00.138Z,99680.06
2023-02-26T15:24:32.476Z,99685.25
2023-02-26T15:27:06.786Z,99681.78
2023-02-26T15:29:38.670Z,99684.41
2023-02-26T15:32:16.998Z,99684.38
2023-02-26T15:34:54.993Z,99687.84
2023-02-26T15:37:30.907Z,99699.09
2023-02-26T15:40:01.137Z,99705.19
2023-02-26T15:42:34.424Z,99710.41
2023-02-26T15:45:03.723Z,99710.41
2023-02-26T15:47:32.667Z,99715.63
2023-02-26T15:50:02.961Z,99724.31
2023-02-26T15:52:31.903Z,99727.78
2023-02-26T15:55:05.692Z,99729.53
2023-02-26T15:57:33.612Z,99728.69
2023-02-26T16:00:17.657Z,99733.00
2023-02-26T16:02:46.436Z,99731.25
2023-02-26T16:05:18.043Z,99731.28
2023-02-26T16:07:47.769Z,99728.66
2023-02-26T16:10:35.982Z,99735.59
2023-02-26T16:13:09.004Z,99739.09
2023-02-26T16:15:40.831Z,99740.81
2023-02-26T16:18:16.133Z,99752.09
2023-02-26T16:20:48.870Z,99757.31
2023-02-26T16:23:22.697Z,99758.16
2023-02-26T16:26:03.224Z,99764.25
2023-02-26T16:28:46.301Z,99777.25
2023-02-26T16:31:21.355Z,99772.91
2023-02-26T16:34:03.234Z,99785.91
2023-02-26T16:36:46.643Z,99793.72
2023-02-26T16:39:28.530Z,99791.97
2023-02-26T16:42:10.558Z,99790.19
2023-02-26T16:44:47.649Z,99797.16
2023-02-26T16:47:19.076Z,99792.78
2023-02-26T16:49:48.578Z,99797.09
2023-02-26T16:52:23.490Z,99804.84
2023-02-26T16:55:00.093Z,99813.53
2023-02-26T16:57:41.209Z,99812.69
2023-02-26T17:00:31.443Z,99816.19
2023-02-26T17:03:23.447Z,99812.69
2023-02-26T17:06:03.512Z,99814.47
2023-02-26T17:08:52.751Z,99817.06
2023-02-26T17:11:49.499Z,99817.06
2023-02-26T17:14:27.803Z,99819.69
2023-02-26T17:16:55.648Z,99830.09
2023-02-26T17:19:23.877Z,99838.78
2023-02-26T17:21:56.735Z,99842.22
2023-02-26T17:24:35.189Z,99848.31
2023-02-26T17:27:06.177Z,99844.00
2023-02-26T17:29:44.424Z,99849.22
2023-02-26T17:32:27.326Z,99845.75
2023-02-26T17:34:57.504Z,99851.81
2023-02-26T17:37:31.281Z,99860.44
2023-02-26T17:40:02.144Z,99865.66
2023-02-26T17:42:31.858Z,99876.94
2023-02-26T17:45:02.237Z,99876.09
2023-02-26T17:47:31.539Z,99869.13
2023-02-26T17:50:02.626Z,99874.34
2023-02-26T17:52:32.254Z,99881.25
2023-02-26T17:55:01.824Z,99876.88
2023-02-26T17:57:31.755Z,99881.19
2023-02-26T18:00:00.230Z,99879.47
2023-02-26T18:02:29.720Z,99886.38
2023-02-26T18:04:59.102Z,99884.69
2023-02-26T18:07:28.619Z,99890.75
2023-02-26T18:09:56.896Z,99902.03
2023-02-26T18:12:26.034Z,99902.00
2023-02-26T18:14:53.862Z,99901.16
2023-02-26T18:17:32.278Z,99904.66
2023-02-26T18:20:01.419Z,99901.22
2023-02-26T18:22:31.678Z,99912.50
2023-02-26T18:25:00.008Z,99918.63
2023-02-26T18:27:30.616Z,99921.19
2023-02-26T18:30:00.208Z,99917.69
2023-02-26T18:32:31.238Z,99922.88
2023-02-26T18:35:00.749Z,99916.84
2023-02-26T18:37:29.693Z,99924.66
2023-02-26T18:39:58.148Z,99929.84
2023-02-26T18:42:31.314Z,99930.69
2023-02-26T18:45:00.318Z,99938.50
2023-02-26T18:47:30.120Z,99935.03
2023-02-26T18:49:59.123Z,99940.19
2023-02-26T18:52:28.581Z,99931.56
2023-02-26T18:54:57.216Z,99947.13
2023-02-26T18:57:31.625Z,99954.00
2023-02-26T19:00:00.328Z,99960.94
2023-02-26T19:02:29.519Z,99970.47
2023-02-26T19:04:57.961Z,99974.69
2023-02-26T19:07:28.618Z,99975.53
2023-02-26T19:09:57.478Z,99981.56
2023-02-26T19:12:27.357Z,99978.84
2023-02-26T19:14:55.498Z,99978.69
2023-02-26T19:17:25.514Z,99976.97
2023-02-26T19:19:54.297Z,99972.88
2023-02-26T19:22:22.655Z,99977.22
2023-02-26T19:24:52.213Z,99979.09
2023-02-26T19:27:21.620Z,99979.97
2023-02-26T19:29:50.271Z,99987.69
2023-02-26T19:32:19.248Z,99988.47
2023-02-26T19:34:47.639Z,99993.69
2023-02-26T19:37:15.859Z,99995.44
2023-02-26T19:39:44.585Z,99997.16
2023-02-26T19:42:15.365Z,100004.03
2023-02-26T19:44:45.442Z,99998.84
2023-02-26T19:47:14.039Z,100009.22
2023-02-26T19:49:43.016Z,100005.75
2023-02-26T19:52:11.488Z,100016.06
2023-02-26T19:54:40.100Z,100018.63
2023-02-26T19:57:08.117Z,100022.13
2023-02-26T19:59:38.604Z,100026.50
2023-02-26T20:02:08.200Z,100024.03
2023-02-26T20:04:36.117Z,100023.13
2023-02-26T20:07:04.647Z,100023.13
2023-02-26T20:09:36.413Z,100026.72
2023-02-26T20:12:11.859Z,100023.25
2023-02-26T20:14:40.805Z,100024.97
2023-02-26T20:17:13.989Z,100021.56
2023-02-26T20:19:43.334Z,100017.25
2023-02-26T20:22:12.544Z,100021.63
2023-02-26T20:24:42.145Z,100020.69
2023-02-26T20:27:10.397Z,100024.19
2023-02-26T20:29:39.865Z,100030.25
2023-02-26T20:32:10.521Z,100038.84
2023-02-26T20:34:42.783Z,100038.88
2023-02-26T20:37:11.011Z,100040.59
2023-02-26T20:39:39.498Z,100046.63
2023-02-26T20:42:08.982Z,100056.13
2023-02-26T20:44:38.512Z,100063.91
2023-02-26T20:47:08.023Z,100059.50
2023-02-26T20:49:38.103Z,100062.97
2023-02-26T20:52:08.549Z,100065.63
2023-02-26T20:54:37.284Z,100068.09
2023-02-26T20:57:06.047Z,100068.09
2023-02-26T20:59:34.133Z,100069.94
2023-02-26T21:02:02.661Z,100073.47
2023-02-26T21:04:32.184Z,100080.34
2023-02-26T21:07:13.571Z,100079.56
2023-02-26T21:09:41.535Z,100083.97
2023-02-26T21:12:10.398Z,100089.16
2023-02-26T21:14:42.040Z,100091.72
2023-02-26T21:17:10.914Z,100092.53
2023-02-26T21:19:39.592Z,100088.22
2023-02-26T21:22:07.724Z,100097.78
2023-02-26T21:24:35.804Z,100097.91
2023-02-26T21:27:04.951Z,100101.25
2023-02-26T21:29:33.030Z,100099.59
2023-02-26T21:32:03.886Z,100107.41
2023-02-26T21:34:41.216Z,100105.69
2023-02-26T21:37:11.751Z,100106.66
2023-02-26T21:39:39.892Z,100111.88
2023-02-26T21:42:11.761Z,100106.63
2023-02-26T21:44:40.613Z,100110.09
2023-02-26T21:47:08.623Z,100115.28
2023-02-26T21:49:36.346Z,100110.94
2023-02-26T21:52:06.055Z,100117.88
2023-02-26T21:54:34.478Z,100114.47
2023-02-26T21:57:02.152Z,100120.47
2023-02-26T21:59:29.798Z,100123.97
2023-02-26T22:01:56.990Z,100124.84
2023-02-26T22:04:24.698Z,100123.13
2023-02-26T22:06:54.224Z,100123.97
2023-02-26T22:09:22.085Z,100120.53
2023-02-26T22:11:49.733Z,100119.63
2023-02-26T22:14:18.015Z,100124.88
2023-02-26T22:16:45.602Z,100123.13
2023-02-26T22:19:12.953Z,100117.06
2023-02-26T22:21:46.451Z,100122.28
2023-02-26T22:24:14.004Z,100129.22
2023-02-26T22:26:44.814Z,100123.13
2023-02-26T22:29:12.424Z,100129.13
2023-02-26T22:31:40.065Z,100139.59
2023-02-26T22:34:08.341Z,100143.94
2023-02-26T22:36:37.913Z,100147.38
2023-02-26T22:39:06.358Z,100154.34
2023-02-26T22:41:35.129Z,100143.94
2023-02-26T22:44:02.873Z,100147.44
2023-02-26T22:46:32.629Z,100152.59
2023-02-26T22:49:00.552Z,100158.75
2023-02-26T22:51:30.081Z,100156.13
2023-02-26T22:53:57.405Z,100167.41
2023-02-26T22:56:25.199Z,100165.66
2023-02-26T22:58:52.776Z,100170.88
2023-02-26T23:01:20.857Z,100169.13
2023-02-26T23:03:47.935Z,100176.09
2023-02-26T23:06:16.228Z,100174.28
2023-02-26T23:08:43.507Z,100184.69
2023-02-26T23:11:10.984Z,100176.00
2023-02-26T23:13:40.381Z,100173.47
2023-02-26T23:16:10.673Z,100168.25
2023-02-26T23:18:39.614Z,100178.69
2023-02-26T23:21:08.397Z,100188.19
2023-02-26T23:23:35.976Z,100187.34
2023-02-26T23:26:03.720Z,100190.81
2023-02-26T23:28:31.325Z,100201.13
2023-02-26T23:30:58.950Z,100196.81
2023-02-26T23:33:26.383Z,100196.88
2023-02-26T23:35:54.195Z,100199.50
2023-02-26T23:38:23.748Z,100200.34
2023-02-26T23:40:51.255Z,100193.44
2023-02-26T23:43:18.565Z,100202.06
2023-02-26T23:45:46.084Z,100197.69
2023-02-26T23:48:13.428Z,100196.88
2023-02-26T23:50:40.984Z,100200.38
2023-02-26T23:53:08.681Z,100196.88
2023-02-26T23:55:36.810Z,100199.44
2023-02-26T23:58:04.390Z,100202.91
